Time;durP1;ratioP1;P1;durP2;ratioP2;P2;SDS_P1;SDS_P2;PMS_P1;PMS_P2;Temp;Humidity;BMP_temperature;BMP_pressure;BME280_temperature;BME280_humidity;BME280_pressure;Samples;Min_cycle;Max_cycle;Signal;HPM_P1;HPM_P2
2024/04/08 00:01:12;;;;;;;7.68;5.25;;;;;;;13.71;100.00;101306.06;10725100;26;20094;-70
2024/04/08 00:06:09;;;;;;;4.95;3.63;;;;;;;13.79;100.00;101307.19;10712906;26;20007;-71
2024/04/08 00:11:09;;;;;;;5.32;4.80;;;;;;;13.78;100.00;101295.38;10718687;26;20017;-70
2024/04/08 00:16:07;;;;;;;5.50;5.00;;;;;;;13.62;100.00;101289.59;10714851;26;20021;-70
2024/04/08 00:21:05;;;;;;;6.45;5.32;;;;;;;13.60;100.00;101304.78;10717329;26;20073;-71
2024/04/08 00:26:06;;;;;;;8.52;4.90;;;;;;;13.38;100.00;101308.50;10713588;26;20014;-70
2024/04/08 00:31:12;;;;;;;5.85;4.85;;;;;;;13.46;100.00;101305.75;10720224;26;20081;-71
2024/04/08 00:36:09;;;;;;;5.63;5.05;;;;;;;13.39;100.00;101315.59;10713429;26;20015;-71
2024/04/08 00:41:06;;;;;;;5.93;4.90;;;;;;;13.35;100.00;101314.66;10716401;26;20458;-71
2024/04/08 00:46:04;;;;;;;6.93;4.50;;;;;;;13.36;100.00;101310.75;10678235;26;20247;-70
2024/04/08 00:51:02;;;;;;;5.28;4.20;;;;;;;13.44;100.00;101315.47;10700635;26;20056;-70
2024/04/08 00:55:59;;;;;;;5.47;4.78;;;;;;;13.30;100.00;101334.00;10737203;26;20002;-71
2024/04/08 01:00:57;;;;;;;7.50;4.50;;;;;;;13.34;100.00;101313.00;10716797;26;20011;-70
2024/04/08 01:05:55;;;;;;;5.15;4.45;;;;;;;13.41;100.00;101316.09;10716803;26;20141;-71
2024/04/08 01:10:52;;;;;;;8.32;4.70;;;;;;;13.22;100.00;101311.66;10713877;26;20097;-70
2024/04/08 01:15:49;;;;;;;5.53;4.40;;;;;;;13.34;100.00;101302.03;10710933;26;20007;-70
2024/04/08 01:20:46;;;;;;;9.18;4.53;;;;;;;13.33;100.00;101305.91;10713235;26;20345;-70
2024/04/08 01:25:43;;;;;;;12.75;5.03;;;;;;;13.30;100.00;101290.06;10715861;26;20451;-70
2024/04/08 01:30:42;;;;;;;6.32;4.00;;;;;;;13.43;100.00;101272.63;10719621;26;20295;-70
2024/04/08 01:35:39;;;;;;;6.70;4.47;;;;;;;13.49;100.00;101271.34;10702317;26;20015;-69
2024/04/08 01:40:37;;;;;;;7.90;4.05;;;;;;;13.49;100.00;101265.84;10707300;26;20449;-68
2024/04/08 01:45:34;;;;;;;5.50;4.75;;;;;;;13.39;100.00;101250.50;10697699;26;20085;-70
2024/04/08 01:50:32;;;;;;;4.97;4.32;;;;;;;13.46;100.00;101217.06;10699364;26;20074;-70
2024/04/08 01:55:29;;;;;;;8.95;4.35;;;;;;;13.26;100.00;101202.00;10707708;26;20010;-72
2024/04/08 02:00:33;;;;;;;6.70;3.88;;;;;;;13.29;100.00;101189.59;10720672;26;20002;-70
2024/04/08 02:05:31;;;;;;;5.65;3.83;;;;;;;13.42;100.00;101194.13;10707278;26;20003;-71
2024/04/08 02:10:28;;;;;;;5.05;3.95;;;;;;;13.45;100.00;101193.44;10714920;26;20019;-70
2024/04/08 02:15:25;;;;;;;5.10;4.00;;;;;;;13.46;100.00;101173.09;10723277;26;20069;-70
2024/04/08 02:20:23;;;;;;;5.38;3.85;;;;;;;13.45;100.00;101171.47;10715076;26;20045;-70
2024/04/08 02:25:20;;;;;;;6.25;3.97;;;;;;;13.44;100.00;101164.38;10720307;26;20011;-70
2024/04/08 02:30:17;;;;;;;5.63;3.90;;;;;;;13.51;100.00;101161.94;10724873;26;20573;-70
2024/04/08 02:35:16;;;;;;;7.28;4.55;;;;;;;13.52;100.00;101149.00;10701916;26;20338;-70
2024/04/08 02:40:13;;;;;;;7.20;4.82;;;;;;;13.59;100.00;101141.88;10706215;26;20338;-70
2024/04/08 02:45:10;;;;;;;8.23;4.10;;;;;;;13.57;100.00;101160.63;10745674;26;20060;-69
2024/04/08 02:50:07;;;;;;;8.57;3.92;;;;;;;13.50;100.00;101201.50;10750055;26;20014;-70
2024/04/08 02:55:04;;;;;;;10.13;4.28;;;;;;;13.54;100.00;101218.16;10708144;26;20337;-72
2024/04/08 03:00:02;;;;;;;4.88;4.30;;;;;;;13.47;100.00;101204.94;10713340;27;20057;-72
2024/04/08 03:04:59;;;;;;;5.25;4.40;;;;;;;13.40;100.00;101197.19;10728408;27;20424;-72
2024/04/08 03:09:56;;;;;;;5.55;4.40;;;;;;;13.31;100.00;101201.88;10725610;26;20003;-71
2024/04/08 03:14:54;;;;;;;4.85;4.20;;;;;;;13.29;100.00;101200.59;10717876;26;20002;-71
2024/04/08 03:19:55;;;;;;;9.65;4.22;;;;;;;13.30;100.00;101196.69;10715853;26;20031;-71
2024/04/08 03:24:52;;;;;;;9.18;4.70;;;;;;;13.26;100.00;101197.31;10714726;26;20043;-70
2024/04/08 03:29:52;;;;;;;6.28;4.22;;;;;;;13.23;100.00;101206.22;10715398;26;20014;-71
2024/04/08 03:34:49;;;;;;;6.78;4.30;;;;;;;13.22;100.00;101215.56;10724493;26;20671;-71
2024/04/08 03:39:49;;;;;;;8.10;5.13;;;;;;;13.23;100.00;101236.41;10710706;26;20020;-71
2024/04/08 03:44:49;;;;;;;6.60;4.72;;;;;;;13.14;100.00;101232.88;10709550;26;21270;-70
2024/04/08 03:49:46;;;;;;;8.23;4.80;;;;;;;13.10;100.00;101237.38;10708245;26;20002;-71
2024/04/08 03:54:44;;;;;;;10.52;4.80;;;;;;;13.03;100.00;101231.56;10705641;26;20535;-71
2024/04/08 03:59:45;;;;;;;9.27;4.07;;;;;;;13.14;100.00;101226.56;10728936;26;20017;-71
2024/04/08 04:04:42;;;;;;;7.47;4.82;;;;;;;13.08;100.00;101201.19;10718869;26;20021;-71
2024/04/08 04:09:39;;;;;;;7.25;4.35;;;;;;;13.09;100.00;101199.25;10713742;26;20046;-71
2024/04/08 04:14:37;;;;;;;7.68;5.55;;;;;;;13.11;100.00;101206.06;10724947;26;20007;-71
2024/04/08 04:19:34;;;;;;;5.88;4.30;;;;;;;13.09;100.00;101207.50;10720912;26;20316;-71
2024/04/08 04:24:31;;;;;;;7.65;4.03;;;;;;;13.11;100.00;101200.56;10726222;26;20010;-71
2024/04/08 04:29:28;;;;;;;6.85;4.40;;;;;;;13.17;100.00;101188.28;10712027;26;20006;-71
2024/04/08 04:34:25;;;;;;;7.05;4.05;;;;;;;13.18;100.00;101189.06;10707064;26;20017;-70
2024/04/08 04:39:22;;;;;;;6.18;4.35;;;;;;;13.24;100.00;101177.59;10648727;26;20007;-70
2024/04/08 04:44:20;;;;;;;6.85;3.90;;;;;;;13.17;100.00;101163.56;10643419;26;20084;-70
2024/04/08 04:49:17;;;;;;;8.27;4.45;;;;;;;13.24;100.00;101183.09;10693210;26;20002;-70
2024/04/08 04:54:14;;;;;;;7.70;4.90;;;;;;;13.22;100.00;101179.88;10724481;26;20062;-70
2024/04/08 04:59:11;;;;;;;8.80;5.32;;;;;;;13.28;100.00;101166.03;10711131;26;20018;-70
2024/04/08 05:04:08;;;;;;;7.95;5.63;;;;;;;13.28;100.00;101171.53;10709703;26;20466;-70
2024/04/08 05:09:05;;;;;;;8.43;5.90;;;;;;;13.29;100.00;101173.13;10715645;26;20006;-70
2024/04/08 05:14:03;;;;;;;12.50;6.82;;;;;;;13.35;100.00;101160.84;10713348;26;20656;-71
2024/04/08 05:19:00;;;;;;;13.60;8.43;;;;;;;13.38;100.00;101144.50;10698704;26;20010;-73
2024/04/08 05:23:57;;;;;;;11.32;7.35;;;;;;;13.29;100.00;101151.94;10691242;26;20017;-72
2024/04/08 05:28:54;;;;;;;11.52;8.55;;;;;;;13.25;100.00;101151.78;10704819;26;20003;-72
2024/04/08 05:33:51;;;;;;;14.90;8.73;;;;;;;13.26;100.00;101136.91;10700999;26;20014;-73
2024/04/08 05:38:48;;;;;;;13.85;9.00;;;;;;;13.31;100.00;101126.91;10700942;26;20008;-74
2024/04/08 05:43:46;;;;;;;17.08;9.93;;;;;;;13.20;100.00;101121.72;10704604;26;20019;-72
2024/04/08 05:48:43;;;;;;;11.27;7.50;;;;;;;13.33;100.00;101119.16;10713167;26;20006;-73
2024/04/08 05:53:40;;;;;;;9.43;6.38;;;;;;;13.36;100.00;101110.25;10679468;26;20031;-73
2024/04/08 05:58:37;;;;;;;7.72;5.93;;;;;;;13.36;100.00;101091.03;10677979;26;20002;-73
2024/04/08 06:03:34;;;;;;;8.32;5.45;;;;;;;13.34;100.00;101099.59;10708866;26;20023;-73
2024/04/08 06:08:31;;;;;;;8.05;5.32;;;;;;;13.44;100.00;101106.69;10702018;26;20019;-74
2024/04/08 06:13:30;;;;;;;9.52;5.30;;;;;;;13.54;100.00;101120.06;10679756;26;20342;-74
2024/04/08 06:18:27;;;;;;;10.48;6.35;;;;;;;13.65;100.00;101115.84;10701954;26;20007;-73
2024/04/08 06:23:24;;;;;;;9.00;5.57;;;;;;;13.76;100.00;101104.47;10694011;26;20451;-74
2024/04/08 06:28:22;;;;;;;8.35;6.00;;;;;;;13.72;100.00;101117.28;10682310;26;20106;-75
2024/04/08 06:33:19;;;;;;;11.20;5.65;;;;;;;13.76;100.00;101118.22;10706033;26;20010;-74
2024/04/08 06:38:16;;;;;;;7.60;5.70;;;;;;;13.72;100.00;101136.50;10694340;26;20021;-74
2024/04/08 06:43:13;;;;;;;8.80;5.00;;;;;;;13.89;100.00;101125.44;10715613;26;20002;-74
2024/04/08 06:48:10;;;;;;;12.52;4.82;;;;;;;13.88;100.00;101123.84;10693778;26;20378;-74
2024/04/08 06:53:07;;;;;;;11.00;4.30;;;;;;;13.91;100.00;101106.66;10698859;26;20026;-74
2024/04/08 06:58:07;;;;;;;6.43;4.53;;;;;;;13.85;100.00;101107.97;10702302;26;20006;-74
2024/04/08 07:03:05;;;;;;;5.55;3.92;;;;;;;13.91;100.00;101111.38;10718574;26;20008;-74
2024/04/08 07:08:02;;;;;;;5.43;3.97;;;;;;;14.00;100.00;101103.88;10726621;26;20010;-75
2024/04/08 07:12:59;;;;;;;8.25;4.63;;;;;;;14.09;100.00;101108.19;10721855;26;20006;-75
2024/04/08 07:17:57;;;;;;;5.45;4.40;;;;;;;14.03;100.00;101093.00;10707584;26;20018;-75
2024/04/08 07:22:55;;;;;;;4.63;4.07;;;;;;;14.05;100.00;101101.75;10710616;26;20007;-76
2024/04/08 07:27:52;;;;;;;6.35;4.57;;;;;;;14.32;100.00;101100.47;10700500;26;20014;-76
2024/04/08 07:32:49;;;;;;;5.82;4.53;;;;;;;14.45;100.00;101073.81;10722372;26;20007;-75
2024/04/08 07:37:46;;;;;;;4.80;3.90;;;;;;;14.68;100.00;101084.50;10708773;26;20006;-73
2024/04/08 07:42:43;;;;;;;8.27;3.97;;;;;;;14.70;100.00;101076.72;10718659;26;20077;-72
2024/04/08 07:47:43;;;;;;;6.60;4.43;;;;;;;14.84;100.00;101077.25;10706180;26;20510;-72
2024/04/08 07:52:40;;;;;;;4.72;4.00;;;;;;;14.95;100.00;101099.66;10714484;26;20013;-72
2024/04/08 07:57:37;;;;;;;4.20;3.80;;;;;;;14.89;100.00;101096.31;10701419;26;20547;-71
2024/04/08 08:02:35;;;;;;;9.50;4.47;;;;;;;15.13;100.00;101105.78;10707500;26;20009;-72
2024/04/08 08:07:32;;;;;;;5.65;4.50;;;;;;;15.45;100.00;101101.41;10715052;26;20021;-72
2024/04/08 08:12:29;;;;;;;6.78;4.10;;;;;;;15.55;100.00;101065.16;10708139;26;20019;-73
2024/04/08 08:17:26;;;;;;;5.28;4.38;;;;;;;15.53;100.00;101041.84;10705637;26;20081;-72
2024/04/08 08:22:24;;;;;;;5.47;4.13;;;;;;;15.58;100.00;101027.84;10711652;26;20019;-72
2024/04/08 08:27:21;;;;;;;5.50;5.00;;;;;;;15.24;100.00;101009.78;10683636;26;20058;-73
2024/04/08 08:32:20;;;;;;;7.63;4.95;;;;;;;15.35;100.00;101017.25;10713922;26;20039;-71
2024/04/08 08:37:17;;;;;;;5.68;5.07;;;;;;;15.62;100.00;101064.59;10702901;26;20654;-70
2024/04/08 08:42:19;;;;;;;6.82;5.82;;;;;;;15.66;100.00;101065.50;10694563;26;20115;-75
2024/04/08 08:47:16;;;;;;;4.70;4.30;;;;;;;15.80;100.00;101039.56;10684768;26;20021;-70
2024/04/08 08:52:13;;;;;;;5.93;4.60;;;;;;;15.91;100.00;101051.75;10693800;26;20086;-72
2024/04/08 08:57:10;;;;;;;7.65;5.00;;;;;;;16.02;100.00;101063.91;10707464;26;20014;-73
2024/04/08 09:02:12;;;;;;;7.03;5.03;;;;;;;16.13;100.00;101065.06;10709814;26;20125;-72
2024/04/08 09:07:09;;;;;;;10.82;6.15;;;;;;;16.29;100.00;101061.56;10713213;26;20030;-73
2024/04/08 09:12:11;;;;;;;6.63;6.10;;;;;;;16.39;100.00;101050.06;10720605;26;20018;-72
2024/04/08 09:17:10;;;;;;;6.23;5.63;;;;;;;16.73;100.00;101048.69;10716025;26;19999;-73
2024/04/08 09:22:08;;;;;;;5.43;5.00;;;;;;;16.91;100.00;101042.88;10701500;26;20022;-72
2024/04/08 09:27:05;;;;;;;7.13;5.78;;;;;;;17.01;100.00;101043.16;10708284;26;20038;-72
2024/04/08 09:32:03;;;;;;;11.00;6.20;;;;;;;17.24;100.00;101042.56;10719940;26;20016;-70
2024/04/08 09:37:03;;;;;;;7.03;5.75;;;;;;;17.37;100.00;101049.59;10712146;26;20468;-72
2024/04/08 09:42:00;;;;;;;7.03;6.38;;;;;;;17.35;100.00;101057.44;10710703;26;20162;-73
2024/04/08 09:47:00;;;;;;;6.68;6.07;;;;;;;17.27;100.00;101044.63;10684695;26;20077;-72
2024/04/08 09:52:00;;;;;;;7.68;6.75;;;;;;;17.35;100.00;101051.94;10687519;26;20103;-73
2024/04/08 09:57:03;;;;;;;7.53;6.57;;;;;;;17.59;100.00;101044.59;10683940;26;20887;-73
2024/04/08 10:02:00;;;;;;;7.18;6.30;;;;;;;17.46;100.00;101036.41;10740546;26;20011;-73
2024/04/08 10:07:05;;;;;;;7.32;6.63;;;;;;;17.52;100.00;101036.13;10710726;26;20333;-72
2024/04/08 10:12:04;;;;;;;8.07;6.43;;;;;;;17.88;100.00;101030.34;10722257;26;20034;-73
2024/04/08 10:17:01;;;;;;;7.13;6.43;;;;;;;18.46;100.00;101031.59;10704795;26;20007;-76
2024/04/08 10:22:02;;;;;;;7.60;6.95;;;;;;;18.61;100.00;101016.06;10741666;26;20003;-71
2024/04/08 10:27:04;;;;;;;8.65;7.28;;;;;;;18.27;100.00;101011.03;10688273;26;20450;-73
2024/04/08 10:32:03;;;;;;;8.02;7.20;;;;;;;18.28;100.00;100995.22;10708026;26;20022;-72
2024/04/08 10:37:00;;;;;;;8.35;7.43;;;;;;;18.93;100.00;100989.00;10686188;27;20021;-73
2024/04/08 10:42:11;;;;;;;8.70;7.65;;;;;;;19.04;100.00;100973.38;10694213;26;20006;-72
2024/04/08 10:47:09;;;;;;;8.40;7.40;;;;;;;19.14;100.00;100961.66;10708908;26;20077;-74
2024/04/08 10:52:06;;;;;;;8.38;7.68;;;;;;;20.65;100.00;100952.66;10699208;26;20027;-72
2024/04/08 10:57:03;;;;;;;8.38;7.57;;;;;;;20.65;100.00;100943.53;10678376;27;20021;-72
2024/04/08 11:02:00;;;;;;;7.63;6.97;;;;;;;20.62;100.00;100941.50;10649770;27;20018;-72
2024/04/08 11:06:58;;;;;;;8.57;7.78;;;;;;;19.24;100.00;100945.56;10700751;26;20038;-72
2024/04/08 11:11:55;;;;;;;10.05;7.38;;;;;;;19.17;100.00;100948.22;10720641;26;20473;-73
2024/04/08 11:16:52;;;;;;;8.57;7.75;;;;;;;19.04;100.00;100929.03;10692170;26;20006;-72
2024/04/08 11:21:49;;;;;;;8.30;7.70;;;;;;;19.72;100.00;100932.06;10713852;26;20789;-72
2024/04/08 11:26:46;;;;;;;9.43;7.63;;;;;;;20.60;100.00;100930.78;10709580;26;20054;-71
2024/04/08 11:31:55;;;;;;;11.70;8.57;;;;;;;21.83;100.00;100933.34;10690342;26;20086;-70
2024/04/08 11:36:52;;;;;;;12.82;10.32;;;;;;;21.36;100.00;100930.25;10707450;26;20002;-70
2024/04/08 11:41:49;;;;;;;9.10;8.20;;;;;;;21.33;100.00;100927.44;10703989;26;20014;-73
2024/04/08 11:46:46;;;;;;;8.93;7.82;;;;;;;20.58;100.00;100941.47;10706601;26;20007;-74
2024/04/08 11:51:43;;;;;;;8.52;7.70;;;;;;;20.68;100.00;100929.69;10710255;26;20007;-73
2024/04/08 11:56:40;;;;;;;8.60;7.80;;;;;;;20.56;100.00;100910.50;10693151;26;20470;-71
2024/04/08 12:01:37;;;;;;;8.95;8.00;;;;;;;20.20;100.00;100903.75;10702182;26;20113;-72
2024/04/08 12:06:37;;;;;;;10.80;9.70;;;;;;;21.41;100.00;100882.63;10718786;26;20129;-72
2024/04/08 12:11:34;;;;;;;8.68;7.90;;;;;;;22.27;100.00;100871.09;10718699;26;20018;-72
2024/04/08 12:16:31;;;;;;;8.95;8.25;;;;;;;22.65;100.00;100868.75;10702218;26;20006;-72
2024/04/08 12:21:28;;;;;;;8.48;7.72;;;;;;;22.65;100.00;100868.75;10722297;26;20444;-72
2024/04/08 12:26:25;;;;;;;9.55;8.00;;;;;;;23.00;100.00;100861.63;10697744;26;20015;-72
2024/04/08 12:31:23;;;;;;;9.15;8.25;;;;;;;21.87;100.00;100863.78;10693701;26;20025;-72
2024/04/08 12:36:20;;;;;;;9.13;7.45;;;;;;;21.23;100.00;100865.81;10703262;26;20485;-72
2024/04/08 12:41:18;;;;;;;10.20;8.38;;;;;;;20.93;100.00;100876.28;10703705;26;20892;-72
2024/04/08 12:46:15;;;;;;;8.80;8.10;;;;;;;20.65;100.00;100874.06;10689153;26;20458;-72
2024/04/08 12:51:12;;;;;;;9.38;8.40;;;;;;;20.56;100.00;100879.94;10703341;26;20021;-72
2024/04/08 12:56:11;;;;;;;9.27;8.32;;;;;;;19.83;100.00;100869.19;10697587;26;20047;-72
2024/04/08 13:01:08;;;;;;;9.38;8.48;;;;;;;19.79;100.00;100873.91;10701230;26;20081;-72
2024/04/08 13:06:05;;;;;;;9.63;8.73;;;;;;;19.80;100.00;100869.97;10702274;27;20348;-72
2024/04/08 13:11:03;;;;;;;9.20;8.30;;;;;;;19.65;100.00;100882.00;10717208;26;20011;-72
2024/04/08 13:16:00;;;;;;;8.32;7.72;;;;;;;19.65;100.00;100868.16;10718842;26;20021;-73
2024/04/08 13:20:57;;;;;;;9.50;8.50;;;;;;;19.85;100.00;100852.97;10701555;26;20018;-72
2024/04/08 13:25:55;;;;;;;10.27;7.90;;;;;;;20.52;100.00;100856.88;10695653;26;20018;-73
2024/04/08 13:30:52;;;;;;;9.82;8.45;;;;;;;20.70;100.00;100848.72;10701133;26;20042;-73
2024/04/08 13:35:49;;;;;;;9.45;8.75;;;;;;;21.70;100.00;100843.03;10698732;26;20026;-73
2024/04/08 13:40:46;;;;;;;10.38;9.35;;;;;;;21.73;100.00;100842.25;10705667;26;20446;-72
2024/04/08 13:45:44;;;;;;;13.50;10.85;;;;;;;22.18;100.00;100845.56;10700020;26;20061;-74
2024/04/08 13:50:41;;;;;;;10.13;9.25;;;;;;;21.31;100.00;100843.63;10708797;26;20350;-74
2024/04/08 13:55:38;;;;;;;9.50;8.70;;;;;;;21.12;100.00;100848.25;10709811;26;20003;-73
2024/04/08 14:00:37;;;;;;;10.18;9.25;;;;;;;20.54;100.00;100846.19;10684753;26;20018;-73
2024/04/08 14:05:34;;;;;;;8.63;7.82;;;;;;;20.21;100.00;100838.69;10699965;26;20003;-73
2024/04/08 14:10:31;;;;;;;9.70;8.77;;;;;;;20.35;100.00;100828.56;10706471;26;20538;-73
2024/04/08 14:15:28;;;;;;;12.13;8.32;;;;;;;20.41;100.00;100819.88;10690075;26;20022;-73
2024/04/08 14:20:26;;;;;;;9.63;8.60;;;;;;;20.41;100.00;100814.31;10694501;26;20007;-73
2024/04/08 14:25:23;;;;;;;9.35;8.45;;;;;;;20.55;100.00;100809.69;10697611;26;20030;-73
2024/04/08 14:30:20;;;;;;;10.70;8.98;;;;;;;20.75;100.00;100790.03;10694704;26;20026;-72
2024/04/08 14:35:18;;;;;;;9.80;8.82;;;;;;;21.44;100.00;100783.69;10701839;26;20011;-72
2024/04/08 14:40:16;;;;;;;9.10;7.97;;;;;;;22.00;100.00;100773.97;10705961;26;20014;-71
2024/04/08 14:45:14;;;;;;;10.25;9.25;;;;;;;22.36;100.00;100773.22;10703346;26;20006;-70
2024/04/08 14:50:12;;;;;;;9.30;8.50;;;;;;;21.83;100.00;100753.22;10665891;26;20013;-70
2024/04/08 14:55:10;;;;;;;9.20;8.30;;;;;;;21.81;100.00;100738.91;10660352;27;20357;-70
2024/04/08 15:00:09;;;;;;;11.32;8.85;;;;;;;21.76;100.00;100730.94;10693029;26;20011;-70
2024/04/08 15:05:07;;;;;;;8.80;8.00;;;;;;;22.35;100.00;100727.06;10680981;27;20439;-71
2024/04/08 15:10:05;;;;;;;11.68;8.50;;;;;;;22.23;100.00;100731.03;10668736;26;20030;-71
2024/04/08 15:15:03;;;;;;;9.65;8.73;;;;;;;22.32;100.00;100728.66;10677072;26;20014;-72
2024/04/08 15:20:03;;;;;;;12.15;8.60;;;;;;;21.77;100.00;100737.31;10684973;26;20060;-71
2024/04/08 15:25:01;;;;;;;10.10;8.85;;;;;;;21.15;100.00;100719.59;10686831;27;20021;-71
2024/04/08 15:29:58;;;;;;;11.23;8.55;;;;;;;21.16;100.00;100721.16;10638217;27;20003;-71
2024/04/08 15:34:56;;;;;;;9.55;8.60;;;;;;;21.46;100.00;100736.81;10682839;27;20007;-71
2024/04/08 15:39:53;;;;;;;9.30;8.48;;;;;;;22.00;100.00;100737.78;10689613;26;20504;-71
2024/04/08 15:44:51;;;;;;;9.88;8.98;;;;;;;21.31;100.00;100732.38;10689834;27;20006;-72
2024/04/08 15:49:49;;;;;;;9.25;8.55;;;;;;;20.97;100.00;100735.38;10690487;26;20099;-71
2024/04/08 15:54:48;;;;;;;8.75;8.05;;;;;;;20.65;100.00;100735.97;10685112;27;19999;-72
2024/04/08 15:59:48;;;;;;;10.40;9.30;;;;;;;20.39;100.00;100740.50;10690516;26;20081;-71
2024/04/08 16:04:49;;;;;;;10.23;9.27;;;;;;;20.16;100.00;100742.69;10672507;26;20109;-71
2024/04/08 16:09:47;;;;;;;10.30;9.50;;;;;;;19.96;100.00;100739.34;10709922;26;20054;-72
2024/04/08 16:14:44;;;;;;;10.90;9.70;;;;;;;19.80;100.00;100742.34;10695802;26;20006;-71
2024/04/08 16:19:42;;;;;;;11.65;9.68;;;;;;;19.73;100.00;100739.50;10696471;26;20481;-72
2024/04/08 16:24:39;;;;;;;10.70;9.75;;;;;;;19.61;100.00;100734.16;10694275;26;20018;-72
2024/04/08 16:29:37;;;;;;;9.43;8.68;;;;;;;19.33;100.00;100743.75;10666488;26;20022;-72
2024/04/08 16:34:34;;;;;;;10.13;9.13;;;;;;;19.09;100.00;100742.25;10676734;27;20033;-72
2024/04/08 16:39:32;;;;;;;10.30;9.38;;;;;;;19.12;100.00;100753.41;10681951;26;20568;-73
2024/04/08 16:44:29;;;;;;;12.70;9.50;;;;;;;18.99;100.00;100754.78;10677573;26;20021;-72
2024/04/08 16:49:29;;;;;;;9.85;9.00;;;;;;;19.02;100.00;100754.03;10675028;26;20009;-72
2024/04/08 16:54:28;;;;;;;10.48;9.65;;;;;;;18.86;100.00;100761.72;10682793;26;20015;-72
2024/04/08 16:59:26;;;;;;;10.52;9.52;;;;;;;18.80;100.00;100758.47;10671812;26;20022;-72
2024/04/08 17:04:23;;;;;;;9.85;8.95;;;;;;;18.79;100.00;100753.31;10687067;26;20118;-72
2024/04/08 17:09:24;;;;;;;9.15;8.45;;;;;;;18.72;100.00;100740.91;10678111;26;20010;-71
2024/04/08 17:14:23;;;;;;;10.23;9.23;;;;;;;18.66;100.00;100742.41;10672977;26;20002;-71
2024/04/08 17:19:21;;;;;;;9.85;9.02;;;;;;;18.53;100.00;100748.53;10692615;26;20661;-72
2024/04/08 17:24:18;;;;;;;11.40;8.90;;;;;;;18.34;100.00;100735.56;10679769;27;20003;-72
2024/04/08 17:29:17;;;;;;;9.07;8.40;;;;;;;18.19;100.00;100732.53;10698587;27;20017;-71
2024/04/08 17:34:14;;;;;;;10.23;8.98;;;;;;;18.02;100.00;100724.75;10668197;26;20020;-72
2024/04/08 17:39:12;;;;;;;9.35;8.55;;;;;;;18.04;100.00;100722.41;10685688;26;20014;-71
2024/04/08 17:44:15;;;;;;;9.70;8.77;;;;;;;17.88;100.00;100731.63;10685885;26;19998;-71
2024/04/08 17:49:12;;;;;;;9.55;8.60;;;;;;;17.83;100.00;100731.13;10704754;27;20014;-71
2024/04/08 17:54:10;;;;;;;12.77;8.35;;;;;;;17.63;100.00;100746.91;10696353;26;20006;-71
2024/04/08 17:59:07;;;;;;;9.32;8.32;;;;;;;17.48;100.00;100733.97;10692325;26;20462;-71
2024/04/08 18:04:05;;;;;;;8.60;7.85;;;;;;;17.44;100.00;100734.69;10696322;26;20515;-72
2024/04/08 18:09:02;;;;;;;7.82;7.13;;;;;;;17.28;100.00;100746.97;10694184;26;20021;-72
2024/04/08 18:14:01;;;;;;;12.00;7.95;;;;;;;17.08;100.00;100741.44;10696438;26;20117;-71
2024/04/08 18:18:59;;;;;;;10.60;7.50;;;;;;;16.97;100.00;100732.91;10695603;26;20471;-73
2024/04/08 18:23:56;;;;;;;9.10;7.35;;;;;;;16.82;100.00;100736.50;10715785;26;20021;-73
2024/04/08 18:28:55;;;;;;;12.00;7.60;;;;;;;16.59;100.00;100753.72;10709558;26;20102;-73
2024/04/08 18:33:53;;;;;;;8.27;6.88;;;;;;;16.52;100.00;100752.72;10703162;26;20622;-72
2024/04/08 18:38:51;;;;;;;8.25;6.95;;;;;;;16.40;100.00;100759.16;10708416;26;20025;-73
2024/04/08 18:43:49;;;;;;;7.45;6.75;;;;;;;16.29;100.00;100763.59;10699963;26;20010;-72
2024/04/08 18:48:47;;;;;;;7.78;6.97;;;;;;;16.13;100.00;100766.34;10714195;26;20013;-73
2024/04/08 18:53:46;;;;;;;7.53;6.82;;;;;;;16.02;100.00;100770.78;10704028;26;20014;-73
2024/04/08 18:58:47;;;;;;;9.47;7.17;;;;;;;15.95;100.00;100765.88;10701268;26;20247;-72
2024/04/08 19:03:44;;;;;;;7.88;7.07;;;;;;;15.88;100.00;100760.97;10718176;26;20022;-72
2024/04/08 19:08:41;;;;;;;7.40;6.70;;;;;;;15.76;100.00;100759.09;10706526;26;20021;-73
2024/04/08 19:13:39;;;;;;;8.32;6.60;;;;;;;15.66;100.00;100770.56;10703343;26;20437;-74
2024/04/08 19:18:36;;;;;;;7.25;6.53;;;;;;;15.58;100.00;100774.28;10715181;26;20439;-73
2024/04/08 19:23:34;;;;;;;9.75;6.85;;;;;;;15.52;100.00;100781.19;10704102;26;20010;-73
2024/04/08 19:28:32;;;;;;;7.93;6.63;;;;;;;15.48;100.00;100781.09;10708358;26;19998;-73
2024/04/08 19:33:29;;;;;;;8.88;6.80;;;;;;;15.34;100.00;100775.97;10678180;26;20062;-73
2024/04/08 19:38:27;;;;;;;8.95;6.10;;;;;;;15.23;100.00;100785.06;10707101;26;20366;-73
2024/04/08 19:43:25;;;;;;;6.72;6.13;;;;;;;15.17;100.00;100779.00;10715473;26;20007;-74
2024/04/08 19:48:22;;;;;;;6.85;6.25;;;;;;;15.13;100.00;100764.31;10743518;26;20006;-73
2024/04/08 19:53:20;;;;;;;10.15;6.75;;;;;;;15.00;100.00;100760.00;10730231;26;20111;-72
2024/04/08 19:58:17;;;;;;;8.57;6.60;;;;;;;14.99;100.00;100758.38;10694262;26;20003;-73
2024/04/08 20:03:14;;;;;;;8.00;6.72;;;;;;;14.88;100.00;100758.84;10702725;26;20490;-73
2024/04/08 20:08:12;;;;;;;7.32;6.45;;;;;;;14.80;100.00;100758.97;10669946;26;20571;-72
2024/04/08 20:13:09;;;;;;;11.40;6.50;;;;;;;14.73;100.00;100757.59;10669217;26;20002;-73
2024/04/08 20:18:06;;;;;;;8.55;6.30;;;;;;;14.66;100.00;100756.56;10699501;26;20006;-73
2024/04/08 20:23:04;;;;;;;8.18;6.22;;;;;;;14.49;100.00;100752.06;10715043;26;20009;-75
2024/04/08 20:28:01;;;;;;;6.93;6.32;;;;;;;14.45;100.00;100757.44;10698137;26;20018;-73
2024/04/08 20:32:59;;;;;;;6.47;5.88;;;;;;;14.40;100.00;100754.94;10704774;26;20018;-72
2024/04/08 20:37:56;;;;;;;12.93;6.45;;;;;;;14.33;100.00;100749.19;10711196;26;20018;-73
2024/04/08 20:42:53;;;;;;;6.88;6.00;;;;;;;14.30;100.00;100739.69;10711757;26;20014;-72
2024/04/08 20:47:54;;;;;;;10.75;6.28;;;;;;;14.20;100.00;100728.31;10700764;26;20017;-72
2024/04/08 20:52:51;;;;;;;7.25;6.18;;;;;;;14.16;100.00;100713.66;10718792;26;20002;-72
2024/04/08 20:57:48;;;;;;;6.85;6.07;;;;;;;14.09;100.00;100723.28;10716274;26;20034;-72
2024/04/08 21:02:49;;;;;;;8.65;5.97;;;;;;;14.04;100.00;100718.00;10707770;26;20076;-70
2024/04/08 21:07:47;;;;;;;8.00;5.60;;;;;;;13.96;100.00;100718.09;10705378;26;20434;-69
2024/04/08 21:12:47;;;;;;;10.07;6.13;;;;;;;13.91;100.00;100716.38;10701503;26;20099;-70
2024/04/08 21:17:47;;;;;;;7.57;6.55;;;;;;;13.85;100.00;100698.47;10719669;26;20073;-70
2024/04/08 21:22:44;;;;;;;9.23;7.00;;;;;;;13.65;100.00;100703.72;10716665;26;20006;-69
2024/04/08 21:27:44;;;;;;;13.35;6.70;;;;;;;13.61;100.00;100691.78;10717423;26;20002;-70
2024/04/08 21:32:41;;;;;;;7.20;6.47;;;;;;;13.63;100.00;100684.00;10704514;26;20763;-71
2024/04/08 21:37:38;;;;;;;9.45;6.55;;;;;;;13.62;100.00;100687.09;10695912;27;20025;-69
2024/04/08 21:42:35;;;;;;;10.45;6.25;;;;;;;13.55;100.00;100676.63;10716081;26;20014;-72
2024/04/08 21:47:33;;;;;;;9.30;6.43;;;;;;;13.51;100.00;100673.00;10709565;27;20010;-72
2024/04/08 21:52:31;;;;;;;6.93;6.30;;;;;;;13.47;100.00;100663.81;10717360;26;20010;-72
2024/04/08 21:57:28;;;;;;;9.68;6.47;;;;;;;13.39;100.00;100657.28;10708441;27;20010;-71
2024/04/08 22:02:25;;;;;;;9.35;6.18;;;;;;;13.33;100.00;100649.59;10709004;26;20005;-71
2024/04/08 22:07:24;;;;;;;9.52;7.28;;;;;;;13.29;100.00;100645.91;10700612;26;20022;-71
2024/04/08 22:12:21;;;;;;;13.35;7.05;;;;;;;13.28;100.00;100645.09;10725677;26;20122;-70
2024/04/08 22:17:24;;;;;;;9.52;6.40;;;;;;;13.21;100.00;100640.13;10706342;26;20027;-70
2024/04/08 22:22:21;;;;;;;6.68;5.97;;;;;;;13.23;100.00;100643.34;10704508;26;20351;-71
2024/04/08 22:27:18;;;;;;;6.97;6.28;;;;;;;13.14;100.00;100642.63;10706518;27;20111;-70